sensor_id;sensor_type;location;lat;lon;timestamp;temperature;humidity
23405;DHT22;11875;49.356;2.718;2022-12-10T00:01:05;4.70;99.90
23405;DHT22;11875;49.356;2.718;2022-12-10T00:03:31;4.70;99.90
23405;DHT22;11875;49.356;2.718;2022-12-10T00:06:00;4.70;99.90
23405;DHT22;11875;49.356;2.718;2022-12-10T00:08:26;4.70;99.90
23405;DHT22;11875;49.356;2.718;2022-12-10T00:10:52;4.70;99.90
23405;DHT22;11875;49.356;2.718;2022-12-10T00:13:18;4.70;99.90
23405;DHT22;11875;49.356;2.718;2022-12-10T00:15:43;4.50;99.90
23405;DHT22;11875;49.356;2.718;2022-12-10T00:18:09;4.50;99.90
23405;DHT22;11875;49.356;2.718;2022-12-10T00:20:37;4.50;99.90
23405;DHT22;11875;49.356;2.718;2022-12-10T00:23:03;4.50;99.90
23405;DHT22;11875;49.356;2.718;2022-12-10T00:25:29;4.60;99.90
23405;DHT22;11875;49.356;2.718;2022-12-10T00:27:55;4.60;99.90
23405;DHT22;11875;49.356;2.718;2022-12-10T00:30:20;4.70;99.90
23405;DHT22;11875;49.356;2.718;2022-12-10T00:32:46;4.70;99.90
23405;DHT22;11875;49.356;2.718;2022-12-10T00:35:12;4.70;99.90
23405;DHT22;11875;49.356;2.718;2022-12-10T00:37:37;4.80;99.90
23405;DHT22;11875;49.356;2.718;2022-12-10T00:40:03;4.80;99.90
23405;DHT22;11875;49.356;2.718;2022-12-10T00:42:29;4.80;99.90
23405;DHT22;11875;49.356;2.718;2022-12-10T00:44:55;4.80;99.90
23405;DHT22;11875;49.356;2.718;2022-12-10T00:47:21;4.80;99.90
23405;DHT22;11875;49.356;2.718;2022-12-10T00:49:46;4.80;99.90
23405;DHT22;11875;49.356;2.718;2022-12-10T00:52:12;4.80;99.90
23405;DHT22;11875;49.356;2.718;2022-12-10T00:54:38;4.80;99.90
23405;DHT22;11875;49.356;2.718;2022-12-10T00:57:03;4.80;99.90
23405;DHT22;11875;49.356;2.718;2022-12-10T00:59:29;4.80;99.90
23405;DHT22;11875;49.356;2.718;2022-12-10T01:01:55;4.80;99.90
23405;DHT22;11875;49.356;2.718;2022-12-10T01:04:20;4.80;99.90
23405;DHT22;11875;49.356;2.718;2022-12-10T01:06:49;4.80;99.90
23405;DHT22;11875;49.356;2.718;2022-12-10T01:09:24;4.80;99.90
23405;DHT22;11875;49.356;2.718;2022-12-10T01:11:51;4.80;99.90
23405;DHT22;11875;49.356;2.718;2022-12-10T01:14:23;4.80;99.90
23405;DHT22;11875;49.356;2.718;2022-12-10T01:16:50;4.80;99.90
23405;DHT22;11875;49.356;2.718;2022-12-10T01:19:18;4.80;99.90
23405;DHT22;11875;49.356;2.718;2022-12-10T01:21:44;4.80;99.90
23405;DHT22;11875;49.356;2.718;2022-12-10T01:24:10;4.80;99.90
23405;DHT22;11875;49.356;2.718;2022-12-10T01:26:36;4.90;99.90
23405;DHT22;11875;49.356;2.718;2022-12-10T01:29:03;4.90;99.90
23405;DHT22;11875;49.356;2.718;2022-12-10T01:31:33;4.80;99.90
23405;DHT22;11875;49.356;2.718;2022-12-10T01:34:00;4.80;99.90
23405;DHT22;11875;49.356;2.718;2022-12-10T01:36:28;4.80;99.90
23405;DHT22;11875;49.356;2.718;2022-12-10T01:38:55;4.80;99.90
23405;DHT22;11875;49.356;2.718;2022-12-10T01:41:24;4.90;99.90
23405;DHT22;11875;49.356;2.718;2022-12-10T01:43:59;4.90;99.90
23405;DHT22;11875;49.356;2.718;2022-12-10T01:46:36;4.80;99.90
23405;DHT22;11875;49.356;2.718;2022-12-10T01:49:08;4.90;99.90
23405;DHT22;11875;49.356;2.718;2022-12-10T01:51:36;4.80;99.90
23405;DHT22;11875;49.356;2.718;2022-12-10T01:54:05;4.80;99.90
23405;DHT22;11875;49.356;2.718;2022-12-10T01:56:31;4.80;99.90
23405;DHT22;11875;49.356;2.718;2022-12-10T01:58:59;4.80;99.90
23405;DHT22;11875;49.356;2.718;2022-12-10T02:01:41;4.80;99.90
23405;DHT22;11875;49.356;2.718;2022-12-10T02:07:05;4.80;99.90
23405;DHT22;11875;49.356;2.718;2022-12-10T02:09:42;4.80;99.90
23405;DHT22;11875;49.356;2.718;2022-12-10T02:12:28;4.80;99.90
23405;DHT22;11875;49.356;2.718;2022-12-10T02:15:10;4.80;99.90
23405;DHT22;11875;49.356;2.718;2022-12-10T02:17:55;4.80;99.90
23405;DHT22;11875;49.356;2.718;2022-12-10T02:20:26;4.80;99.90
23405;DHT22;11875;49.356;2.718;2022-12-10T02:23:28;4.70;99.90
23405;DHT22;11875;49.356;2.718;2022-12-10T02:29:22;4.50;99.90
23405;DHT22;11875;49.356;2.718;2022-12-10T02:31:56;4.40;99.90
23405;DHT22;11875;49.356;2.718;2022-12-10T02:34:26;4.40;99.90
23405;DHT22;11875;49.356;2.718;2022-12-10T02:36:55;4.50;99.90
23405;DHT22;11875;49.356;2.718;2022-12-10T02:39:28;4.50;99.90
23405;DHT22;11875;49.356;2.718;2022-12-10T02:41:59;4.50;99.90
23405;DHT22;11875;49.356;2.718;2022-12-10T02:44:27;4.60;99.90
23405;DHT22;11875;49.356;2.718;2022-12-10T02:46:56;4.70;99.90
23405;DHT22;11875;49.356;2.718;2022-12-10T02:49:23;4.70;99.90
23405;DHT22;11875;49.356;2.718;2022-12-10T02:51:50;4.60;99.90
23405;DHT22;11875;49.356;2.718;2022-12-10T02:54:44;4.60;99.90
23405;DHT22;11875;49.356;2.718;2022-12-10T03:00:10;4.50;99.90
23405;DHT22;11875;49.356;2.718;2022-12-10T03:05:27;4.50;99.90
23405;DHT22;11875;49.356;2.718;2022-12-10T03:13:11;4.50;99.90
23405;DHT22;11875;49.356;2.718;2022-12-10T03:15:40;4.50;99.90
23405;DHT22;11875;49.356;2.718;2022-12-10T03:18:09;4.50;99.90
23405;DHT22;11875;49.356;2.718;2022-12-10T03:20:38;4.40;99.90
23405;DHT22;11875;49.356;2.718;2022-12-10T03:23:15;4.30;99.90
23405;DHT22;11875;49.356;2.718;2022-12-10T03:25:42;4.30;99.90
23405;DHT22;11875;49.356;2.718;2022-12-10T03:28:08;4.40;99.90
23405;DHT22;11875;49.356;2.718;2022-12-10T03:30:36;4.40;99.90
23405;DHT22;11875;49.356;2.718;2022-12-10T03:33:03;4.30;99.90
23405;DHT22;11875;49.356;2.718;2022-12-10T03:35:29;4.30;99.90
23405;DHT22;11875;49.356;2.718;2022-12-10T03:37:56;4.20;99.90
23405;DHT22;11875;49.356;2.718;2022-12-10T03:40:23;4.20;99.90
23405;DHT22;11875;49.356;2.718;2022-12-10T03:42:49;4.30;99.90
23405;DHT22;11875;49.356;2.718;2022-12-10T03:45:15;4.20;99.90
23405;DHT22;11875;49.356;2.718;2022-12-10T03:47:41;4.40;99.90
23405;DHT22;11875;49.356;2.718;2022-12-10T03:50:08;4.40;99.90
23405;DHT22;11875;49.356;2.718;2022-12-10T03:52:34;4.40;99.90
23405;DHT22;11875;49.356;2.718;2022-12-10T03:55:00;4.40;99.90
23405;DHT22;11875;49.356;2.718;2022-12-10T03:57:25;4.40;99.90
23405;DHT22;11875;49.356;2.718;2022-12-10T03:59:51;4.30;99.90
23405;DHT22;11875;49.356;2.718;2022-12-10T04:02:17;4.40;99.90
23405;DHT22;11875;49.356;2.718;2022-12-10T04:04:43;4.40;99.90
23405;DHT22;11875;49.356;2.718;2022-12-10T04:07:09;4.50;99.90
23405;DHT22;11875;49.356;2.718;2022-12-10T04:09:35;4.50;99.90
23405;DHT22;11875;49.356;2.718;2022-12-10T04:12:01;4.50;99.90
23405;DHT22;11875;49.356;2.718;2022-12-10T04:14:27;4.50;99.90
23405;DHT22;11875;49.356;2.718;2022-12-10T04:17:12;4.40;99.90
23405;DHT22;11875;49.356;2.718;2022-12-10T04:19:38;4.40;99.90
23405;DHT22;11875;49.356;2.718;2022-12-10T04:22:04;4.40;99.90
23405;DHT22;11875;49.356;2.718;2022-12-10T04:24:49;4.40;99.90
23405;DHT22;11875;49.356;2.718;2022-12-10T04:27:36;4.40;99.90
23405;DHT22;11875;49.356;2.718;2022-12-10T04:30:04;4.50;99.90
23405;DHT22;11875;49.356;2.718;2022-12-10T04:32:30;4.40;99.90
23405;DHT22;11875;49.356;2.718;2022-12-10T04:34:56;4.40;99.90
23405;DHT22;11875;49.356;2.718;2022-12-10T04:37:22;4.40;99.90
23405;DHT22;11875;49.356;2.718;2022-12-10T04:39:52;4.40;99.90
23405;DHT22;11875;49.356;2.718;2022-12-10T04:42:18;4.40;99.90
23405;DHT22;11875;49.356;2.718;2022-12-10T04:44:44;4.40;99.90
23405;DHT22;11875;49.356;2.718;2022-12-10T04:47:10;4.40;99.90
23405;DHT22;11875;49.356;2.718;2022-12-10T04:49:37;4.40;99.90
23405;DHT22;11875;49.356;2.718;2022-12-10T04:52:04;4.40;99.90
23405;DHT22;11875;49.356;2.718;2022-12-10T04:54:30;4.40;99.90
23405;DHT22;11875;49.356;2.718;2022-12-10T04:56:56;4.30;99.90
23405;DHT22;11875;49.356;2.718;2022-12-10T04:59:21;4.30;99.90
23405;DHT22;11875;49.356;2.718;2022-12-10T05:01:47;4.20;99.90
23405;DHT22;11875;49.356;2.718;2022-12-10T05:04:15;4.10;99.90
23405;DHT22;11875;49.356;2.718;2022-12-10T05:06:41;4.00;99.90
23405;DHT22;11875;49.356;2.718;2022-12-10T05:09:07;4.00;99.90
23405;DHT22;11875;49.356;2.718;2022-12-10T05:11:33;3.90;99.90
23405;DHT22;11875;49.356;2.718;2022-12-10T05:13:59;3.90;99.90
23405;DHT22;11875;49.356;2.718;2022-12-10T05:16:29;3.90;99.90
23405;DHT22;11875;49.356;2.718;2022-12-10T05:18:56;3.80;99.90
23405;DHT22;11875;49.356;2.718;2022-12-10T05:21:23;3.80;99.90
23405;DHT22;11875;49.356;2.718;2022-12-10T05:23:51;3.70;99.90
23405;DHT22;11875;49.356;2.718;2022-12-10T05:26:18;3.70;99.90
23405;DHT22;11875;49.356;2.718;2022-12-10T05:28:50;3.70;99.90
23405;DHT22;11875;49.356;2.718;2022-12-10T05:31:19;3.70;99.90
23405;DHT22;11875;49.356;2.718;2022-12-10T05:33:45;3.60;99.90
23405;DHT22;11875;49.356;2.718;2022-12-10T05:36:13;3.50;99.90
23405;DHT22;11875;49.356;2.718;2022-12-10T05:38:40;3.40;99.90
23405;DHT22;11875;49.356;2.718;2022-12-10T05:41:12;3.50;99.90
23405;DHT22;11875;49.356;2.718;2022-12-10T05:43:39;3.50;99.90
23405;DHT22;11875;49.356;2.718;2022-12-10T05:46:07;3.40;99.90
23405;DHT22;11875;49.356;2.718;2022-12-10T05:48:33;3.50;99.90
23405;DHT22;11875;49.356;2.718;2022-12-10T05:51:06;3.50;99.90
23405;DHT22;11875;49.356;2.718;2022-12-10T05:53:32;3.50;99.90
23405;DHT22;11875;49.356;2.718;2022-12-10T05:56:07;3.60;99.90
23405;DHT22;11875;49.356;2.718;2022-12-10T05:58:34;3.50;99.90
23405;DHT22;11875;49.356;2.718;2022-12-10T06:01:05;3.60;99.90
23405;DHT22;11875;49.356;2.718;2022-12-10T06:03:31;3.60;99.90
23405;DHT22;11875;49.356;2.718;2022-12-10T06:05:56;3.70;99.90
23405;DHT22;11875;49.356;2.718;2022-12-10T06:08:22;3.70;99.90
23405;DHT22;11875;49.356;2.718;2022-12-10T06:10:48;3.60;99.90
23405;DHT22;11875;49.356;2.718;2022-12-10T06:13:14;3.60;99.90
23405;DHT22;11875;49.356;2.718;2022-12-10T06:15:41;3.60;99.90
23405;DHT22;11875;49.356;2.718;2022-12-10T06:18:07;3.60;99.90
23405;DHT22;11875;49.356;2.718;2022-12-10T06:20:32;3.70;99.90
23405;DHT22;11875;49.356;2.718;2022-12-10T06:22:58;3.80;99.90
23405;DHT22;11875;49.356;2.718;2022-12-10T06:25:24;3.90;99.90
23405;DHT22;11875;49.356;2.718;2022-12-10T06:27:50;3.90;99.90
23405;DHT22;11875;49.356;2.718;2022-12-10T06:30:16;3.90;99.90
23405;DHT22;11875;49.356;2.718;2022-12-10T06:32:42;3.90;99.90
23405;DHT22;11875;49.356;2.718;2022-12-10T06:35:11;3.90;99.90
23405;DHT22;11875;49.356;2.718;2022-12-10T06:37:37;3.80;99.90
23405;DHT22;11875;49.356;2.718;2022-12-10T06:40:03;4.00;99.90
23405;DHT22;11875;49.356;2.718;2022-12-10T06:42:29;3.90;99.90
23405;DHT22;11875;49.356;2.718;2022-12-10T06:44:55;3.90;99.90
23405;DHT22;11875;49.356;2.718;2022-12-10T06:47:21;3.90;99.90
23405;DHT22;11875;49.356;2.718;2022-12-10T06:49:47;3.90;99.90
23405;DHT22;11875;49.356;2.718;2022-12-10T06:52:13;3.90;99.90
23405;DHT22;11875;49.356;2.718;2022-12-10T06:54:38;4.00;99.90
23405;DHT22;11875;49.356;2.718;2022-12-10T06:57:04;4.00;99.90
23405;DHT22;11875;49.356;2.718;2022-12-10T06:59:30;4.00;99.90
23405;DHT22;11875;49.356;2.718;2022-12-10T07:01:56;4.10;99.90
23405;DHT22;11875;49.356;2.718;2022-12-10T07:04:21;4.00;99.90
23405;DHT22;11875;49.356;2.718;2022-12-10T07:06:47;3.90;99.90
23405;DHT22;11875;49.356;2.718;2022-12-10T07:09:13;3.80;99.90
23405;DHT22;11875;49.356;2.718;2022-12-10T07:11:38;3.80;99.90
23405;DHT22;11875;49.356;2.718;2022-12-10T07:14:04;3.80;99.90
23405;DHT22;11875;49.356;2.718;2022-12-10T07:16:31;3.80;99.90
23405;DHT22;11875;49.356;2.718;2022-12-10T07:19:00;3.80;99.90
23405;DHT22;11875;49.356;2.718;2022-12-10T07:21:34;3.80;99.90
23405;DHT22;11875;49.356;2.718;2022-12-10T07:24:03;3.80;99.90
23405;DHT22;11875;49.356;2.718;2022-12-10T07:26:30;3.80;99.90
23405;DHT22;11875;49.356;2.718;2022-12-10T07:28:57;3.80;99.90
23405;DHT22;11875;49.356;2.718;2022-12-10T07:31:23;3.90;99.90
23405;DHT22;11875;49.356;2.718;2022-12-10T07:33:50;3.80;99.90
23405;DHT22;11875;49.356;2.718;2022-12-10T07:36:17;3.90;99.90
23405;DHT22;11875;49.356;2.718;2022-12-10T07:38:43;3.80;99.90
23405;DHT22;11875;49.356;2.718;2022-12-10T07:41:11;3.90;99.90
23405;DHT22;11875;49.356;2.718;2022-12-10T07:43:38;3.80;99.90
23405;DHT22;11875;49.356;2.718;2022-12-10T07:46:27;3.90;99.90
23405;DHT22;11875;49.356;2.718;2022-12-10T07:48:51;3.90;99.90
23405;DHT22;11875;49.356;2.718;2022-12-10T07:51:18;3.90;99.90
23405;DHT22;11875;49.356;2.718;2022-12-10T07:53:46;4.00;99.90
23405;DHT22;11875;49.356;2.718;2022-12-10T07:56:12;4.40;99.90
23405;DHT22;11875;49.356;2.718;2022-12-10T07:58:41;4.00;99.90
23405;DHT22;11875;49.356;2.718;2022-12-10T08:01:09;3.90;99.90
23405;DHT22;11875;49.356;2.718;2022-12-10T08:03:35;3.90;99.90
23405;DHT22;11875;49.356;2.718;2022-12-10T08:08:33;4.00;99.90
23405;DHT22;11875;49.356;2.718;2022-12-10T08:11:00;4.00;99.90
23405;DHT22;11875;49.356;2.718;2022-12-10T08:13:27;4.00;99.90
23405;DHT22;11875;49.356;2.718;2022-12-10T08:15:52;4.00;99.90
23405;DHT22;11875;49.356;2.718;2022-12-10T08:18:18;4.00;99.90
23405;DHT22;11875;49.356;2.718;2022-12-10T08:20:44;4.00;99.90
23405;DHT22;11875;49.356;2.718;2022-12-10T08:23:10;4.00;99.90
23405;DHT22;11875;49.356;2.718;2022-12-10T08:25:36;4.00;99.90
23405;DHT22;11875;49.356;2.718;2022-12-10T08:28:02;4.00;99.90
23405;DHT22;11875;49.356;2.718;2022-12-10T08:30:29;3.90;99.90
23405;DHT22;11875;49.356;2.718;2022-12-10T08:32:55;3.90;99.90
23405;DHT22;11875;49.356;2.718;2022-12-10T08:35:21;4.00;99.90
23405;DHT22;11875;49.356;2.718;2022-12-10T08:37:47;3.80;99.90
23405;DHT22;11875;49.356;2.718;2022-12-10T08:40:13;3.80;99.90
23405;DHT22;11875;49.356;2.718;2022-12-10T08:42:38;3.80;99.90
23405;DHT22;11875;49.356;2.718;2022-12-10T08:45:05;3.70;99.90
23405;DHT22;11875;49.356;2.718;2022-12-10T08:47:31;3.80;99.90
23405;DHT22;11875;49.356;2.718;2022-12-10T08:49:56;3.90;99.90
23405;DHT22;11875;49.356;2.718;2022-12-10T08:52:22;3.90;99.90
23405;DHT22;11875;49.356;2.718;2022-12-10T08:54:48;4.10;99.90
23405;DHT22;11875;49.356;2.718;2022-12-10T08:57:13;4.00;99.90
23405;DHT22;11875;49.356;2.718;2022-12-10T08:59:39;4.10;99.90
23405;DHT22;11875;49.356;2.718;2022-12-10T09:02:05;4.10;99.90
23405;DHT22;11875;49.356;2.718;2022-12-10T09:04:30;4.10;99.90
23405;DHT22;11875;49.356;2.718;2022-12-10T09:06:56;4.00;99.90
23405;DHT22;11875;49.356;2.718;2022-12-10T09:09:21;3.90;99.90
23405;DHT22;11875;49.356;2.718;2022-12-10T09:11:47;3.90;99.90
23405;DHT22;11875;49.356;2.718;2022-12-10T09:14:13;3.90;99.90
23405;DHT22;11875;49.356;2.718;2022-12-10T09:16:39;4.00;99.90
23405;DHT22;11875;49.356;2.718;2022-12-10T09:19:05;4.00;99.90
23405;DHT22;11875;49.356;2.718;2022-12-10T09:21:31;4.10;99.90
23405;DHT22;11875;49.356;2.718;2022-12-10T09:23:57;4.10;99.90
23405;DHT22;11875;49.356;2.718;2022-12-10T09:26:24;4.10;99.90
23405;DHT22;11875;49.356;2.718;2022-12-10T09:28:49;4.10;99.90
23405;DHT22;11875;49.356;2.718;2022-12-10T09:31:17;4.10;99.90
23405;DHT22;11875;49.356;2.718;2022-12-10T09:33:43;4.10;99.90
23405;DHT22;11875;49.356;2.718;2022-12-10T09:36:11;4.20;99.90
23405;DHT22;11875;49.356;2.718;2022-12-10T09:38:40;4.80;99.90
23405;DHT22;11875;49.356;2.718;2022-12-10T09:44:05;4.10;99.90
23405;DHT22;11875;49.356;2.718;2022-12-10T09:52:16;4.20;99.90
23405;DHT22;11875;49.356;2.718;2022-12-10T09:54:48;4.30;99.90
23405;DHT22;11875;49.356;2.718;2022-12-10T09:57:32;4.00;99.90
23405;DHT22;11875;49.356;2.718;2022-12-10T10:00:04;4.10;99.90
23405;DHT22;11875;49.356;2.718;2022-12-10T10:02:32;4.10;99.90
23405;DHT22;11875;49.356;2.718;2022-12-10T10:05:08;4.10;99.90
23405;DHT22;11875;49.356;2.718;2022-12-10T10:07:41;4.10;99.90
23405;DHT22;11875;49.356;2.718;2022-12-10T10:12:46;4.10;99.90
23405;DHT22;11875;49.356;2.718;2022-12-10T10:15:15;4.30;99.90
23405;DHT22;11875;49.356;2.718;2022-12-10T10:17:42;4.40;99.90
23405;DHT22;11875;49.356;2.718;2022-12-10T10:20:11;4.50;99.90
23405;DHT22;11875;49.356;2.718;2022-12-10T10:22:38;4.50;99.90
23405;DHT22;11875;49.356;2.718;2022-12-10T10:25:07;4.60;99.90
23405;DHT22;11875;49.356;2.718;2022-12-10T10:27:37;4.50;99.90
23405;DHT22;11875;49.356;2.718;2022-12-10T10:30:04;4.40;99.90
23405;DHT22;11875;49.356;2.718;2022-12-10T10:35:02;4.30;99.90
23405;DHT22;11875;49.356;2.718;2022-12-10T10:37:41;4.20;99.90
23405;DHT22;11875;49.356;2.718;2022-12-10T10:40:29;4.10;99.90
23405;DHT22;11875;49.356;2.718;2022-12-10T10:42:57;4.00;99.90
23405;DHT22;11875;49.356;2.718;2022-12-10T10:45:39;4.10;99.90
23405;DHT22;11875;49.356;2.718;2022-12-10T10:48:16;4.30;99.90
23405;DHT22;11875;49.356;2.718;2022-12-10T10:50:51;4.20;99.90
23405;DHT22;11875;49.356;2.718;2022-12-10T10:56:14;4.10;99.90
23405;DHT22;11875;49.356;2.718;2022-12-10T10:59:05;4.10;99.90
23405;DHT22;11875;49.356;2.718;2022-12-10T11:01:52;4.20;99.90
23405;DHT22;11875;49.356;2.718;2022-12-10T11:04:28;4.40;99.90
23405;DHT22;11875;49.356;2.718;2022-12-10T11:06:56;4.50;99.90
23405;DHT22;11875;49.356;2.718;2022-12-10T11:09:32;4.60;99.90
23405;DHT22;11875;49.356;2.718;2022-12-10T11:14:37;4.30;99.90
23405;DHT22;11875;49.356;2.718;2022-12-10T11:19:41;4.10;99.90
23405;DHT22;11875;49.356;2.718;2022-12-10T11:22:31;4.10;99.90
23405;DHT22;11875;49.356;2.718;2022-12-10T11:24:58;4.20;99.90
23405;DHT22;11875;49.356;2.718;2022-12-10T11:27:46;4.00;99.90
23405;DHT22;11875;49.356;2.718;2022-12-10T11:30:22;4.00;99.90
23405;DHT22;11875;49.356;2.718;2022-12-10T11:35:39;3.90;99.90
23405;DHT22;11875;49.356;2.718;2022-12-10T11:38:28;3.80;99.90
23405;DHT22;11875;49.356;2.718;2022-12-10T11:41:08;3.90;99.90
23405;DHT22;11875;49.356;2.718;2022-12-10T11:44:24;4.10;99.90
23405;DHT22;11875;49.356;2.718;2022-12-10T11:49:54;4.20;99.90
23405;DHT22;11875;49.356;2.718;2022-12-10T11:55:43;4.40;99.90
23405;DHT22;11875;49.356;2.718;2022-12-10T11:58:31;4.40;99.90
23405;DHT22;11875;49.356;2.718;2022-12-10T12:15:00;4.30;99.90
23405;DHT22;11875;49.356;2.718;2022-12-10T12:17:40;4.50;99.90
23405;DHT22;11875;49.356;2.718;2022-12-10T12:21:14;4.80;99.90
23405;DHT22;11875;49.356;2.718;2022-12-10T12:23:29;4.80;99.90
23405;DHT22;11875;49.356;2.718;2022-12-10T12:26:00;4.70;99.90
23405;DHT22;11875;49.356;2.718;2022-12-10T12:28:35;4.70;99.90
23405;DHT22;11875;49.356;2.718;2022-12-10T12:31:08;4.60;99.90
23405;DHT22;11875;49.356;2.718;2022-12-10T12:33:49;4.70;99.90
23405;DHT22;11875;49.356;2.718;2022-12-10T12:36:20;4.80;99.90
23405;DHT22;11875;49.356;2.718;2022-12-10T12:41:57;4.90;99.90
23405;DHT22;11875;49.356;2.718;2022-12-10T12:45:00;4.90;99.90
23405;DHT22;11875;49.356;2.718;2022-12-10T12:47:46;4.90;99.90
23405;DHT22;11875;49.356;2.718;2022-12-10T12:53:18;5.10;99.90
23405;DHT22;11875;49.356;2.718;2022-12-10T12:55:46;4.90;99.90
23405;DHT22;11875;49.356;2.718;2022-12-10T13:00:54;4.70;99.90
23405;DHT22;11875;49.356;2.718;2022-12-10T13:03:32;4.70;99.90
23405;DHT22;11875;49.356;2.718;2022-12-10T13:06:25;4.90;99.90
23405;DHT22;11875;49.356;2.718;2022-12-10T13:11:43;4.90;99.90
23405;DHT22;11875;49.356;2.718;2022-12-10T13:14:12;4.90;99.90
23405;DHT22;11875;49.356;2.718;2022-12-10T13:27:10;5.20;99.90
23405;DHT22;11875;49.356;2.718;2022-12-10T13:32:17;5.20;99.90
23405;DHT22;11875;49.356;2.718;2022-12-10T13:34:43;5.20;99.90
23405;DHT22;11875;49.356;2.718;2022-12-10T13:40:01;4.90;99.90
23405;DHT22;11875;49.356;2.718;2022-12-10T13:42:31;4.90;99.90
23405;DHT22;11875;49.356;2.718;2022-12-10T13:47:51;5.00;99.90
23405;DHT22;11875;49.356;2.718;2022-12-10T13:53:17;4.70;99.90
23405;DHT22;11875;49.356;2.718;2022-12-10T14:01:15;4.90;99.90
23405;DHT22;11875;49.356;2.718;2022-12-10T14:06:19;4.90;99.90
23405;DHT22;11875;49.356;2.718;2022-12-10T14:11:31;4.70;99.90
23405;DHT22;11875;49.356;2.718;2022-12-10T14:14:00;4.70;99.90
23405;DHT22;11875;49.356;2.718;2022-12-10T14:16:31;4.50;99.90
23405;DHT22;11875;49.356;2.718;2022-12-10T14:19:06;4.40;99.90
23405;DHT22;11875;49.356;2.718;2022-12-10T14:21:34;4.40;99.90
23405;DHT22;11875;49.356;2.718;2022-12-10T14:24:02;4.50;99.90
23405;DHT22;11875;49.356;2.718;2022-12-10T14:26:33;4.60;99.90
23405;DHT22;11875;49.356;2.718;2022-12-10T14:29:20;4.70;99.90
23405;DHT22;11875;49.356;2.718;2022-12-10T14:31:48;4.80;99.90
23405;DHT22;11875;49.356;2.718;2022-12-10T14:34:22;4.80;99.90
23405;DHT22;11875;49.356;2.718;2022-12-10T14:36:52;4.80;99.90
23405;DHT22;11875;49.356;2.718;2022-12-10T14:39:30;4.70;99.90
23405;DHT22;11875;49.356;2.718;2022-12-10T14:42:00;4.70;99.90
23405;DHT22;11875;49.356;2.718;2022-12-10T14:44:27;4.70;99.90
23405;DHT22;11875;49.356;2.718;2022-12-10T14:47:15;4.70;99.90
23405;DHT22;11875;49.356;2.718;2022-12-10T14:49:44;4.70;99.90
23405;DHT22;11875;49.356;2.718;2022-12-10T14:52:19;4.70;99.90
23405;DHT22;11875;49.356;2.718;2022-12-10T14:54:46;5.00;99.90
23405;DHT22;11875;49.356;2.718;2022-12-10T14:59:56;5.10;99.90
23405;DHT22;11875;49.356;2.718;2022-12-10T15:02:31;5.10;99.90
23405;DHT22;11875;49.356;2.718;2022-12-10T15:04:59;5.20;99.90
23405;DHT22;11875;49.356;2.718;2022-12-10T15:07:31;5.00;99.90
23405;DHT22;11875;49.356;2.718;2022-12-10T15:10:02;5.10;99.90
23405;DHT22;11875;49.356;2.718;2022-12-10T15:12:35;5.20;99.90
23405;DHT22;11875;49.356;2.718;2022-12-10T15:15:09;5.00;99.90
23405;DHT22;11875;49.356;2.718;2022-12-10T15:17:40;5.00;99.90
23405;DHT22;11875;49.356;2.718;2022-12-10T15:20:18;4.90;99.90
23405;DHT22;11875;49.356;2.718;2022-12-10T15:22:43;4.90;99.90
23405;DHT22;11875;49.356;2.718;2022-12-10T15:25:26;4.90;99.90
23405;DHT22;11875;49.356;2.718;2022-12-10T15:28:00;4.90;99.90
23405;DHT22;11875;49.356;2.718;2022-12-10T15:30:39;4.80;99.90
23405;DHT22;11875;49.356;2.718;2022-12-10T15:36:22;4.60;99.90
23405;DHT22;11875;49.356;2.718;2022-12-10T15:38:49;4.60;99.90
23405;DHT22;11875;49.356;2.718;2022-12-10T15:44:14;4.50;99.90
23405;DHT22;11875;49.356;2.718;2022-12-10T15:46:57;4.50;99.90
23405;DHT22;11875;49.356;2.718;2022-12-10T15:49:23;4.50;99.90
23405;DHT22;11875;49.356;2.718;2022-12-10T15:51:49;4.50;99.90
23405;DHT22;11875;49.356;2.718;2022-12-10T15:54:27;4.50;99.90
23405;DHT22;11875;49.356;2.718;2022-12-10T15:56:52;4.40;99.90
23405;DHT22;11875;49.356;2.718;2022-12-10T15:59:18;4.50;99.90
23405;DHT22;11875;49.356;2.718;2022-12-10T16:01:45;4.50;99.90
23405;DHT22;11875;49.356;2.718;2022-12-10T16:04:11;4.50;99.90
23405;DHT22;11875;49.356;2.718;2022-12-10T16:06:37;4.60;99.90
23405;DHT22;11875;49.356;2.718;2022-12-10T16:09:03;4.60;99.90
23405;DHT22;11875;49.356;2.718;2022-12-10T16:11:29;4.60;99.90
23405;DHT22;11875;49.356;2.718;2022-12-10T16:13:55;4.70;99.90
23405;DHT22;11875;49.356;2.718;2022-12-10T16:16:25;4.80;99.90
23405;DHT22;11875;49.356;2.718;2022-12-10T16:18:51;4.80;99.90
23405;DHT22;11875;49.356;2.718;2022-12-10T16:21:17;4.90;99.90
23405;DHT22;11875;49.356;2.718;2022-12-10T16:23:42;4.70;99.90
23405;DHT22;11875;49.356;2.718;2022-12-10T16:26:16;4.60;99.90
23405;DHT22;11875;49.356;2.718;2022-12-10T16:28:44;4.40;99.90
23405;DHT22;11875;49.356;2.718;2022-12-10T16:31:19;4.20;99.90
23405;DHT22;11875;49.356;2.718;2022-12-10T16:33:45;4.20;99.90
23405;DHT22;11875;49.356;2.718;2022-12-10T16:36:12;4.40;99.90
23405;DHT22;11875;49.356;2.718;2022-12-10T16:38:39;4.40;99.90
23405;DHT22;11875;49.356;2.718;2022-12-10T16:41:14;4.40;99.90
23405;DHT22;11875;49.356;2.718;2022-12-10T16:43:41;4.40;99.90
23405;DHT22;11875;49.356;2.718;2022-12-10T16:46:09;4.50;99.90
23405;DHT22;11875;49.356;2.718;2022-12-10T16:48:35;4.50;99.90
23405;DHT22;11875;49.356;2.718;2022-12-10T16:51:01;4.60;99.90
23405;DHT22;11875;49.356;2.718;2022-12-10T16:53:29;4.70;99.90
23405;DHT22;11875;49.356;2.718;2022-12-10T16:55:56;4.70;99.90
23405;DHT22;11875;49.356;2.718;2022-12-10T16:58:23;4.70;99.90
23405;DHT22;11875;49.356;2.718;2022-12-10T17:00:51;4.70;99.90
23405;DHT22;11875;49.356;2.718;2022-12-10T17:03:22;4.70;99.90
23405;DHT22;11875;49.356;2.718;2022-12-10T17:05:53;4.80;99.90
23405;DHT22;11875;49.356;2.718;2022-12-10T17:08:20;4.90;99.90
23405;DHT22;11875;49.356;2.718;2022-12-10T17:10:47;4.90;99.90
23405;DHT22;11875;49.356;2.718;2022-12-10T17:13:33;4.90;99.90
23405;DHT22;11875;49.356;2.718;2022-12-10T17:15:59;4.70;99.90
23405;DHT22;11875;49.356;2.718;2022-12-10T17:18:25;4.70;99.90
23405;DHT22;11875;49.356;2.718;2022-12-10T17:20:51;4.70;99.90
23405;DHT22;11875;49.356;2.718;2022-12-10T17:23:17;4.80;99.90
23405;DHT22;11875;49.356;2.718;2022-12-10T17:25:43;4.70;99.90
23405;DHT22;11875;49.356;2.718;2022-12-10T17:28:20;4.70;99.90
23405;DHT22;11875;49.356;2.718;2022-12-10T17:30:48;4.80;99.90
23405;DHT22;11875;49.356;2.718;2022-12-10T17:33:22;4.70;99.90
23405;DHT22;11875;49.356;2.718;2022-12-10T17:35:49;4.70;99.90
23405;DHT22;11875;49.356;2.718;2022-12-10T17:38:18;4.60;99.90
23405;DHT22;11875;49.356;2.718;2022-12-10T17:40:44;4.70;99.90
23405;DHT22;11875;49.356;2.718;2022-12-10T17:43:11;4.60;99.90
23405;DHT22;11875;49.356;2.718;2022-12-10T17:45:38;4.70;99.90
23405;DHT22;11875;49.356;2.718;2022-12-10T17:48:04;4.60;99.90
23405;DHT22;11875;49.356;2.718;2022-12-10T17:50:34;4.60;99.90
23405;DHT22;11875;49.356;2.718;2022-12-10T17:53:04;4.50;99.90
23405;DHT22;11875;49.356;2.718;2022-12-10T17:55:31;4.50;99.90
23405;DHT22;11875;49.356;2.718;2022-12-10T17:57:57;4.60;99.90